Time;durP1;ratioP1;P1;durP2;ratioP2;P2;SDS_P1;SDS_P2;PMS_P1;PMS_P2;Temp;Humidity;BMP_temperature;BMP_pressure;BME280_temperature;BME280_humidity;BME280_pressure;Samples;Min_cycle;Max_cycle;Signal;HPM_P1;HPM_P2
2021/10/05 00:01:45;;;;;;;7.63;4.68;;;10.50;99.90;;;;;;5057091;28;20056;-61
2021/10/05 00:04:11;;;;;;;4.55;3.35;;;10.50;99.90;;;;;;5062188;28;20035;-61
2021/10/05 00:06:37;;;;;;;7.03;3.10;;;10.40;99.90;;;;;;5061871;28;20480;-61
2021/10/05 00:09:02;;;;;;;7.57;3.60;;;10.40;99.90;;;;;;5061224;28;20515;-61
2021/10/05 00:11:28;;;;;;;7.82;3.72;;;10.40;99.90;;;;;;5058167;28;20385;-60
2021/10/05 00:13:54;;;;;;;9.32;3.97;;;10.30;99.90;;;;;;5063468;28;20071;-63
2021/10/05 00:16:19;;;;;;;4.40;3.20;;;10.30;99.90;;;;;;5061444;28;20037;-61
2021/10/05 00:18:47;;;;;;;6.90;3.45;;;10.30;99.90;;;;;;5062006;28;20036;-62
2021/10/05 00:21:13;;;;;;;8.70;4.05;;;10.30;99.90;;;;;;5061097;28;20060;-63
2021/10/05 00:23:39;;;;;;;6.47;3.90;;;10.20;99.90;;;;;;5060749;28;20028;-61
2021/10/05 00:26:04;;;;;;;12.82;4.45;;;10.20;99.90;;;;;;5055027;28;20037;-61
2021/10/05 00:28:30;;;;;;;9.57;3.92;;;10.20;99.90;;;;;;5063377;28;20048;-61
2021/10/05 00:30:56;;;;;;;7.28;4.43;;;10.10;99.90;;;;;;5057655;28;20029;-61
2021/10/05 00:33:21;;;;;;;5.65;3.83;;;10.20;99.90;;;;;;5060664;28;20028;-62
2021/10/05 00:35:47;;;;;;;8.13;4.35;;;10.10;99.90;;;;;;5066082;28;20033;-60
2021/10/05 00:38:12;;;;;;;7.07;4.15;;;10.10;99.90;;;;;;5055462;28;20839;-61
2021/10/05 00:40:39;;;;;;;9.15;4.40;;;10.10;99.90;;;;;;5054200;28;20040;-61
2021/10/05 00:43:05;;;;;;;5.88;3.80;;;10.10;99.90;;;;;;5061792;28;20028;-59
2021/10/05 00:45:30;;;;;;;4.80;3.50;;;10.10;99.90;;;;;;5060619;28;20028;-61
2021/10/05 00:47:56;;;;;;;6.25;3.80;;;10.10;99.90;;;;;;5057516;28;20029;-61
2021/10/05 00:50:21;;;;;;;6.80;4.28;;;10.10;99.90;;;;;;5058207;28;20626;-61
2021/10/05 00:52:49;;;;;;;7.68;3.90;;;10.10;99.90;;;;;;5059563;28;20039;-61
2021/10/05 00:55:14;;;;;;;7.80;4.22;;;10.10;99.90;;;;;;5062942;28;20036;-58
2021/10/05 00:57:40;;;;;;;6.13;4.05;;;10.00;99.90;;;;;;5058940;28;20032;-61
2021/10/05 01:00:07;;;;;;;7.65;4.18;;;10.10;99.90;;;;;;5060989;28;20040;-59
2021/10/05 01:02:33;;;;;;;5.80;3.88;;;10.10;99.90;;;;;;5061573;28;20032;-62
2021/10/05 01:04:59;;;;;;;6.32;4.10;;;10.00;99.90;;;;;;5061530;28;20033;-62
2021/10/05 01:07:24;;;;;;;11.90;4.75;;;10.00;99.90;;;;;;5061155;28;20031;-61
2021/10/05 01:09:51;;;;;;;4.50;3.35;;;10.00;99.90;;;;;;5060058;28;20048;-60
2021/10/05 01:12:17;;;;;;;5.63;3.47;;;10.00;99.90;;;;;;5069008;28;20024;-60
2021/10/05 01:14:43;;;;;;;5.15;3.50;;;10.00;99.90;;;;;;5060583;28;20033;-60
2021/10/05 01:17:09;;;;;;;7.32;3.75;;;10.00;99.90;;;;;;5061422;28;20056;-59
2021/10/05 01:19:36;;;;;;;8.07;4.28;;;10.00;99.90;;;;;;5062580;28;20111;-61
2021/10/05 01:22:01;;;;;;;4.32;3.47;;;10.00;99.90;;;;;;5070346;28;20021;-61
2021/10/05 01:24:27;;;;;;;6.25;3.90;;;10.00;99.90;;;;;;5073103;28;20373;-60
2021/10/05 01:26:57;;;;;;;8.07;3.80;;;10.00;99.90;;;;;;5058764;28;20376;-60
2021/10/05 01:29:28;;;;;;;4.80;3.67;;;10.00;99.90;;;;;;5057248;28;20032;-61
2021/10/05 01:31:56;;;;;;;6.38;3.72;;;10.10;99.90;;;;;;5059686;28;20033;-62
2021/10/05 01:34:23;;;;;;;8.63;3.80;;;10.10;99.90;;;;;;5062731;28;20492;-59
2021/10/05 01:36:52;;;;;;;4.55;3.30;;;10.00;99.90;;;;;;5062244;28;20060;-61
2021/10/05 01:39:26;;;;;;;6.03;3.67;;;10.00;99.90;;;;;;5056678;28;20028;-61
2021/10/05 01:41:55;;;;;;;5.53;3.85;;;10.00;99.90;;;;;;5059895;28;20111;-61
2021/10/05 01:44:20;;;;;;;5.22;3.30;;;10.00;99.90;;;;;;5057852;28;20028;-61
2021/10/05 01:46:46;;;;;;;8.02;3.63;;;10.00;99.90;;;;;;5057540;28;20384;-61
2021/10/05 01:49:16;;;;;;;7.00;3.40;;;10.00;99.90;;;;;;5062515;28;20047;-61
2021/10/05 01:51:42;;;;;;;4.85;3.50;;;10.10;99.90;;;;;;5058631;28;20051;-61
2021/10/05 01:54:09;;;;;;;7.60;3.47;;;10.10;99.90;;;;;;5062152;28;20013;-60
2021/10/05 01:56:34;;;;;;;6.68;3.60;;;10.10;99.90;;;;;;5062734;28;20585;-61
2021/10/05 01:59:00;;;;;;;7.38;3.47;;;10.10;99.90;;;;;;5057589;28;20040;-60
2021/10/05 02:01:25;;;;;;;4.32;3.60;;;10.10;99.90;;;;;;5057418;28;20055;-58
2021/10/05 02:03:51;;;;;;;5.53;3.58;;;10.10;99.90;;;;;;5069937;28;20110;-61
2021/10/05 02:06:17;;;;;;;5.50;3.70;;;10.10;99.90;;;;;;5061125;28;20411;-61
2021/10/05 02:08:43;;;;;;;7.90;3.17;;;10.10;99.90;;;;;;5060366;28;20055;-61
2021/10/05 02:11:08;;;;;;;9.02;3.88;;;10.10;99.90;;;;;;5059424;28;20056;-61
2021/10/05 02:13:35;;;;;;;3.55;2.83;;;10.10;99.90;;;;;;5059433;28;20048;-60
2021/10/05 02:16:01;;;;;;;7.80;3.13;;;10.10;99.90;;;;;;5062812;28;20034;-61
2021/10/05 02:18:26;;;;;;;4.47;3.33;;;10.20;99.90;;;;;;5061537;28;20122;-60
2021/10/05 02:20:52;;;;;;;6.75;3.65;;;10.20;99.90;;;;;;5057147;28;20032;-61
2021/10/05 02:23:17;;;;;;;5.90;3.00;;;10.20;99.90;;;;;;5057504;28;20025;-61
2021/10/05 02:25:43;;;;;;;7.90;3.17;;;10.30;99.90;;;;;;5063890;28;20683;-60
2021/10/05 02:28:08;;;;;;;5.25;3.20;;;10.30;99.90;;;;;;5061528;28;20025;-61
2021/10/05 02:30:34;;;;;;;7.22;2.75;;;10.40;99.90;;;;;;5057086;28;20068;-61
2021/10/05 02:33:00;;;;;;;4.72;3.08;;;10.40;99.90;;;;;;5059760;28;20025;-59
2021/10/05 02:35:25;;;;;;;6.93;3.10;;;10.40;99.90;;;;;;5059259;28;20385;-60
2021/10/05 02:37:51;;;;;;;4.70;2.65;;;10.40;99.90;;;;;;5058565;28;20400;-59
2021/10/05 02:40:16;;;;;;;3.13;2.60;;;10.50;99.90;;;;;;5065650;28;20036;-61
2021/10/05 02:42:42;;;;;;;6.05;3.17;;;10.50;99.90;;;;;;5051883;23;20038;-62
2021/10/05 02:45:08;;;;;;;4.32;3.00;;;10.60;99.90;;;;;;5029584;28;20417;-60
2021/10/05 02:47:34;;;;;;;3.78;2.85;;;10.60;99.90;;;;;;5028527;28;20504;-57
2021/10/05 02:50:00;;;;;;;5.45;2.67;;;10.60;99.90;;;;;;5029420;28;20033;-61
2021/10/05 02:52:25;;;;;;;5.60;3.28;;;10.70;99.90;;;;;;5042325;28;20025;-60
2021/10/05 02:54:51;;;;;;;7.90;2.92;;;10.70;99.90;;;;;;5047366;28;20055;-59
2021/10/05 02:57:20;;;;;;;5.13;2.60;;;10.80;99.90;;;;;;5051862;28;20101;-60
2021/10/05 02:59:46;;;;;;;5.25;2.97;;;10.80;99.90;;;;;;5048755;28;20500;-64
2021/10/05 03:02:13;;;;;;;3.67;2.30;;;10.80;99.90;;;;;;5049353;28;20028;-62
2021/10/05 03:04:40;;;;;;;3.90;2.22;;;10.80;99.90;;;;;;5049081;28;20033;-59
2021/10/05 03:07:06;;;;;;;3.67;2.20;;;10.80;99.90;;;;;;5052792;28;20041;-56
2021/10/05 03:09:32;;;;;;;4.72;2.92;;;10.90;99.90;;;;;;5053363;28;20024;-59
2021/10/05 03:11:58;;;;;;;8.68;2.50;;;10.90;99.90;;;;;;5052753;28;20469;-62
2021/10/05 03:14:24;;;;;;;4.63;2.30;;;10.90;99.90;;;;;;5049259;28;20096;-60
2021/10/05 03:16:49;;;;;;;2.88;2.45;;;10.90;99.90;;;;;;5053215;28;20027;-58
2021/10/05 03:19:15;;;;;;;7.78;2.22;;;10.90;99.90;;;;;;5052486;28;20029;-59
2021/10/05 03:21:41;;;;;;;4.43;2.80;;;11.00;99.90;;;;;;5052141;28;20485;-60
2021/10/05 03:24:08;;;;;;;4.07;2.20;;;11.00;99.90;;;;;;5052492;28;20029;-57
2021/10/05 03:26:33;;;;;;;4.22;2.30;;;11.00;99.90;;;;;;5052648;28;20090;-60
2021/10/05 03:28:59;;;;;;;4.10;2.67;;;11.00;99.90;;;;;;5067807;28;20476;-58
2021/10/05 03:31:24;;;;;;;4.35;2.53;;;11.00;99.90;;;;;;5051490;28;20040;-58
2021/10/05 03:33:50;;;;;;;3.47;2.55;;;11.10;99.90;;;;;;5056526;28;20029;-59
2021/10/05 03:36:17;;;;;;;3.83;2.40;;;11.10;99.90;;;;;;5050626;28;20029;-58
2021/10/05 03:38:43;;;;;;;6.32;2.35;;;11.10;99.90;;;;;;5052879;28;20484;-58
2021/10/05 03:41:10;;;;;;;5.75;2.58;;;11.10;99.90;;;;;;5052523;28;20108;-59
2021/10/05 03:43:36;;;;;;;2.63;1.98;;;11.20;99.90;;;;;;5053813;28;20044;-58
2021/10/05 03:46:03;;;;;;;3.50;2.03;;;11.20;99.90;;;;;;5053406;28;20083;-59
2021/10/05 03:48:29;;;;;;;4.22;2.40;;;11.20;99.90;;;;;;5052077;28;20615;-59
2021/10/05 03:50:54;;;;;;;7.75;2.25;;;11.20;99.90;;;;;;5052922;28;20116;-61
2021/10/05 03:53:20;;;;;;;3.25;2.40;;;11.10;99.90;;;;;;5069355;28;20345;-59
2021/10/05 03:55:49;;;;;;;4.13;2.42;;;11.20;99.90;;;;;;5053408;28;20423;-56
2021/10/05 03:58:15;;;;;;;4.18;2.53;;;11.20;99.90;;;;;;5047620;28;20033;-60
2021/10/05 04:00:41;;;;;;;2.60;2.10;;;11.20;99.90;;;;;;5047280;28;20190;-61
2021/10/05 04:03:07;;;;;;;4.35;2.47;;;11.10;99.90;;;;;;5053786;28;20496;-61
2021/10/05 04:05:32;;;;;;;5.00;2.55;;;11.10;99.90;;;;;;5051648;28;20120;-61
2021/10/05 04:07:58;;;;;;;5.05;2.70;;;11.10;99.90;;;;;;5053165;28;20055;-59
2021/10/05 04:10:24;;;;;;;3.78;2.35;;;11.10;99.90;;;;;;5053576;28;20025;-59
2021/10/05 04:12:49;;;;;;;4.75;3.47;;;11.10;99.90;;;;;;5053272;28;20029;-61
2021/10/05 04:15:15;;;;;;;6.55;3.30;;;11.20;99.90;;;;;;5053570;28;20036;-60
2021/10/05 04:17:40;;;;;;;3.20;2.15;;;11.20;99.90;;;;;;5057722;28;20041;-58
2021/10/05 04:20:07;;;;;;;4.93;2.80;;;11.20;99.90;;;;;;5050951;28;20025;-59
2021/10/05 04:22:33;;;;;;;6.22;2.55;;;11.10;99.90;;;;;;5052885;28;20040;-58
2021/10/05 04:24:58;;;;;;;3.03;2.60;;;11.10;99.90;;;;;;5053492;28;20025;-58
2021/10/05 04:27:24;;;;;;;4.50;3.53;;;11.20;99.90;;;;;;5053178;28;20071;-61
2021/10/05 04:29:50;;;;;;;5.40;2.70;;;11.10;99.90;;;;;;5052629;28;20036;-59
2021/10/05 04:32:15;;;;;;;3.08;2.47;;;11.10;99.90;;;;;;5052690;28;20036;-58
2021/10/05 04:34:43;;;;;;;4.00;2.45;;;11.10;99.90;;;;;;5052591;28;20029;-59
2021/10/05 04:37:09;;;;;;;3.72;2.65;;;11.10;99.90;;;;;;5052017;28;20021;-59
2021/10/05 04:39:34;;;;;;;11.13;2.80;;;11.10;99.90;;;;;;5053061;28;20090;-59
2021/10/05 04:42:01;;;;;;;4.85;2.70;;;11.00;99.90;;;;;;5052110;28;20025;-59
2021/10/05 04:44:27;;;;;;;6.55;2.95;;;11.00;99.90;;;;;;5052788;28;20083;-60
2021/10/05 04:46:52;;;;;;;6.13;2.60;;;11.00;99.90;;;;;;5051961;28;20534;-62
2021/10/05 04:49:18;;;;;;;3.97;2.60;;;11.00;99.90;;;;;;5052632;28;20488;-58
2021/10/05 04:51:44;;;;;;;4.18;2.92;;;11.00;99.90;;;;;;5051221;28;20039;-59
2021/10/05 04:54:10;;;;;;;9.00;3.25;;;11.00;99.90;;;;;;5052731;28;20025;-62
2021/10/05 04:56:35;;;;;;;6.82;3.67;;;10.90;99.90;;;;;;5054769;28;20036;-60
2021/10/05 04:59:01;;;;;;;4.13;2.72;;;10.90;99.90;;;;;;5052298;28;20408;-58
2021/10/05 05:01:27;;;;;;;5.90;2.47;;;11.00;99.90;;;;;;5050430;28;20163;-58
2021/10/05 05:03:52;;;;;;;3.97;2.70;;;10.90;99.90;;;;;;5052532;28;20488;-59
2021/10/05 05:06:18;;;;;;;3.45;2.85;;;10.90;99.90;;;;;;5050516;28;20041;-60
2021/10/05 05:08:43;;;;;;;3.40;2.55;;;10.90;99.90;;;;;;5052368;28;20025;-59
2021/10/05 05:11:09;;;;;;;5.38;2.95;;;10.90;99.90;;;;;;5051562;28;20029;-61
2021/10/05 05:13:34;;;;;;;4.10;3.35;;;11.00;99.90;;;;;;5051578;28;20035;-61
2021/10/05 05:16:00;;;;;;;5.88;3.03;;;10.90;99.90;;;;;;5051767;28;20033;-59
2021/10/05 05:18:25;;;;;;;4.55;3.30;;;10.90;99.90;;;;;;5051537;28;20126;-59
2021/10/05 05:20:51;;;;;;;5.75;3.40;;;10.90;99.90;;;;;;5051816;28;20037;-60
2021/10/05 05:23:16;;;;;;;7.85;3.40;;;10.90;99.90;;;;;;5051734;28;20034;-61
2021/10/05 05:25:42;;;;;;;5.90;3.53;;;10.90;99.90;;;;;;5049801;28;20036;-62
2021/10/05 05:28:10;;;;;;;7.35;3.90;;;11.00;99.90;;;;;;5051858;28;20039;-59
2021/10/05 05:30:36;;;;;;;7.30;4.25;;;11.00;99.90;;;;;;5050614;28;20078;-58
2021/10/05 05:33:02;;;;;;;5.78;3.80;;;11.00;99.90;;;;;;5051700;28;20021;-60
2021/10/05 05:35:27;;;;;;;9.05;3.97;;;11.00;99.90;;;;;;5051019;28;20111;-61
2021/10/05 05:37:53;;;;;;;7.25;3.85;;;11.00;99.90;;;;;;5051691;28;20105;-59
2021/10/05 05:40:18;;;;;;;7.25;3.80;;;11.00;99.90;;;;;;5046414;28;20673;-61
2021/10/05 05:42:44;;;;;;;4.90;3.65;;;11.10;99.90;;;;;;5045284;28;20047;-59
2021/10/05 05:45:10;;;;;;;7.63;3.38;;;11.10;99.90;;;;;;5048467;28;20477;-62
2021/10/05 05:47:37;;;;;;;10.70;3.45;;;11.10;99.90;;;;;;5047688;28;20032;-57
2021/10/05 05:50:04;;;;;;;6.18;4.50;;;11.00;99.90;;;;;;5051321;28;20096;-59
2021/10/05 05:52:32;;;;;;;6.55;3.95;;;11.00;99.90;;;;;;5051937;28;20255;-60
2021/10/05 05:54:58;;;;;;;4.50;3.17;;;11.10;99.90;;;;;;5051112;28;20039;-58
2021/10/05 05:57:23;;;;;;;5.55;4.05;;;11.10;99.90;;;;;;5051451;28;20497;-58
2021/10/05 05:59:48;;;;;;;7.38;4.50;;;11.10;99.90;;;;;;5049400;28;20081;-59
2021/10/05 06:02:14;;;;;;;6.93;4.03;;;11.10;99.90;;;;;;5050419;28;20029;-59
2021/10/05 06:04:40;;;;;;;14.15;7.70;;;11.20;99.90;;;;;;5050091;28;20047;-59
2021/10/05 06:07:05;;;;;;;7.30;4.70;;;11.20;99.90;;;;;;5047506;28;20024;-58
2021/10/05 06:09:33;;;;;;;6.55;4.18;;;11.20;99.90;;;;;;5050459;28;20111;-59
2021/10/05 06:12:02;;;;;;;10.05;5.30;;;11.20;99.90;;;;;;5049568;28;20492;-61
2021/10/05 06:14:29;;;;;;;10.52;5.80;;;11.20;99.90;;;;;;5048287;28;20032;-58
2021/10/05 06:16:55;;;;;;;10.93;6.15;;;11.30;99.90;;;;;;5049703;28;20036;-57
2021/10/05 06:19:21;;;;;;;8.35;5.63;;;11.30;99.90;;;;;;5050056;28;20033;-58
2021/10/05 06:21:47;;;;;;;8.40;4.82;;;11.30;99.90;;;;;;5049218;28;20086;-59
2021/10/05 06:24:12;;;;;;;10.02;4.80;;;11.30;99.90;;;;;;5049315;28;20032;-56
2021/10/05 06:26:38;;;;;;;10.60;4.85;;;11.30;99.90;;;;;;5049848;28;20051;-60
2021/10/05 06:29:03;;;;;;;7.10;4.80;;;11.40;99.90;;;;;;5050363;28;20028;-56
2021/10/05 06:31:29;;;;;;;8.02;4.70;;;11.40;99.90;;;;;;5046674;28;20393;-57
2021/10/05 06:33:54;;;;;;;13.55;5.80;;;11.40;99.90;;;;;;5051356;28;20112;-58
2021/10/05 06:36:20;;;;;;;8.43;5.22;;;11.50;99.90;;;;;;5053227;28;20043;-59
2021/10/05 06:38:45;;;;;;;7.22;4.97;;;11.50;99.90;;;;;;5055620;28;20431;-57
2021/10/05 06:41:11;;;;;;;18.95;10.15;;;11.60;99.90;;;;;;5050320;28;20404;-58
2021/10/05 06:43:36;;;;;;;13.63;7.45;;;11.60;99.90;;;;;;5051256;28;20097;-59
2021/10/05 06:46:03;;;;;;;11.00;6.43;;;11.60;99.90;;;;;;5050916;28;20120;-58
2021/10/05 06:48:29;;;;;;;7.65;4.50;;;11.70;99.90;;;;;;5049528;28;20049;-60
2021/10/05 06:50:55;;;;;;;8.38;4.75;;;11.80;99.90;;;;;;5050402;28;20063;-57
2021/10/05 06:53:20;;;;;;;8.98;3.78;;;11.80;99.90;;;;;;5051891;28;20445;-58
2021/10/05 06:55:46;;;;;;;8.52;3.90;;;11.90;99.90;;;;;;5049467;28;20029;-58
2021/10/05 06:58:12;;;;;;;6.95;4.25;;;11.90;99.90;;;;;;5051368;28;20045;-59
2021/10/05 07:00:38;;;;;;;4.28;3.65;;;12.00;99.90;;;;;;5051204;28;20036;-61
2021/10/05 07:03:03;;;;;;;6.05;3.42;;;12.00;99.90;;;;;;5051106;28;20041;-61
2021/10/05 07:05:30;;;;;;;11.98;3.70;;;12.10;99.90;;;;;;5051337;28;20029;-57
2021/10/05 07:07:55;;;;;;;4.57;3.60;;;12.10;99.90;;;;;;5050887;28;20021;-59
2021/10/05 07:10:23;;;;;;;8.15;3.90;;;12.10;99.90;;;;;;5051637;28;20111;-56
2021/10/05 07:12:50;;;;;;;5.43;3.67;;;12.20;99.90;;;;;;5050434;28;20116;-59
2021/10/05 07:15:16;;;;;;;6.35;4.32;;;12.20;99.90;;;;;;5050952;28;20508;-56
2021/10/05 07:17:42;;;;;;;6.28;4.07;;;12.30;99.90;;;;;;5050823;28;20033;-58
2021/10/05 07:20:09;;;;;;;6.47;4.45;;;12.30;99.90;;;;;;5054062;28;20033;-61
2021/10/05 07:22:35;;;;;;;5.20;3.47;;;12.30;99.90;;;;;;5052413;28;20033;-61
2021/10/05 07:25:00;;;;;;;13.60;3.50;;;12.40;99.90;;;;;;5043695;28;20030;-59
2021/10/05 07:27:26;;;;;;;7.47;3.22;;;12.50;99.90;;;;;;5051264;28;20491;-63
2021/10/05 07:29:52;;;;;;;5.93;3.95;;;12.50;99.90;;;;;;5050547;28;20056;-59
2021/10/05 07:32:18;;;;;;;4.88;3.08;;;12.50;99.90;;;;;;5048809;28;20047;-56
2021/10/05 07:34:44;;;;;;;9.60;3.35;;;12.60;99.90;;;;;;5050493;28;20567;-58
2021/10/05 07:37:10;;;;;;;5.70;3.38;;;12.70;99.90;;;;;;5049828;28;20025;-59
2021/10/05 07:39:37;;;;;;;5.88;4.35;;;12.70;99.90;;;;;;5050865;28;20021;-57
2021/10/05 07:42:03;;;;;;;8.27;3.78;;;12.70;99.90;;;;;;5049914;28;20037;-56
2021/10/05 07:44:30;;;;;;;6.10;3.10;;;12.80;99.90;;;;;;5051126;28;20104;-59
2021/10/05 07:46:58;;;;;;;5.32;3.00;;;12.90;99.90;;;;;;5050565;28;20032;-61
2021/10/05 07:49:24;;;;;;;8.10;2.67;;;12.90;99.90;;;;;;5050340;28;20025;-59
2021/10/05 07:51:50;;;;;;;8.02;3.38;;;13.00;99.90;;;;;;5052895;28;20095;-61
2021/10/05 07:54:16;;;;;;;2.83;1.92;;;13.10;99.90;;;;;;5054198;28;20483;-59
2021/10/05 07:56:41;;;;;;;5.68;2.67;;;13.20;99.90;;;;;;5054207;28;20037;-60
2021/10/05 07:59:07;;;;;;;3.05;2.00;;;13.30;99.90;;;;;;5053992;28;20028;-58
2021/10/05 08:01:35;;;;;;;6.15;2.40;;;13.40;99.90;;;;;;5054418;28;20029;-61
2021/10/05 08:04:01;;;;;;;2.38;1.73;;;13.50;99.90;;;;;;5054259;28;20108;-61
2021/10/05 08:06:26;;;;;;;24.55;3.13;;;13.50;99.90;;;;;;5053796;28;20116;-59
2021/10/05 08:08:52;;;;;;;4.35;1.80;;;13.60;99.90;;;;;;5054069;28;20177;-58
2021/10/05 08:11:19;;;;;;;4.72;2.15;;;13.70;99.90;;;;;;5053760;28;20021;-57
2021/10/05 08:13:45;;;;;;;2.75;1.52;;;13.80;99.90;;;;;;5054367;28;20024;-59
2021/10/05 08:16:10;;;;;;;2.88;1.80;;;13.80;99.90;;;;;;5053913;28;20443;-59
2021/10/05 08:18:36;;;;;;;3.05;2.05;;;14.00;99.90;;;;;;5053764;28;20028;-59
2021/10/05 08:21:03;;;;;;;3.92;2.35;;;14.00;99.90;;;;;;5050064;28;20091;-59
2021/10/05 08:23:29;;;;;;;2.78;1.70;;;14.10;99.90;;;;;;5050006;28;20025;-60
2021/10/05 08:25:55;;;;;;;3.53;1.63;;;14.20;99.90;;;;;;5053983;28;20036;-59
2021/10/05 08:28:20;;;;;;;2.85;1.73;;;14.30;99.90;;;;;;5049754;28;20061;-59
2021/10/05 08:30:47;;;;;;;3.75;1.65;;;14.30;99.90;;;;;;5049449;28;20111;-59
2021/10/05 08:33:13;;;;;;;3.10;1.83;;;14.40;99.90;;;;;;5049896;28;20037;-58
2021/10/05 08:35:39;;;;;;;3.75;1.90;;;14.40;99.90;;;;;;5053427;28;20067;-59
2021/10/05 08:38:05;;;;;;;4.95;1.75;;;14.40;99.90;;;;;;5052880;28;20033;-58
2021/10/05 08:40:33;;;;;;;4.53;1.48;;;14.40;99.90;;;;;;5050981;28;20060;-60
2021/10/05 08:42:59;;;;;;;2.42;1.45;;;14.40;99.90;;;;;;5057330;23;20049;-61
2021/10/05 08:45:25;;;;;;;2.63;1.70;;;14.50;99.90;;;;;;5033148;28;20033;-60
2021/10/05 08:47:50;;;;;;;4.35;1.90;;;14.50;99.90;;;;;;5045766;28;20405;-59
2021/10/05 08:50:17;;;;;;;3.15;1.50;;;14.60;99.90;;;;;;5038633;28;20107;-60
2021/10/05 08:52:44;;;;;;;4.10;1.65;;;14.70;99.90;;;;;;5056928;28;20666;-61
2021/10/05 08:55:10;;;;;;;2.70;1.92;;;14.80;99.90;;;;;;5061835;28;20040;-61
2021/10/05 08:57:35;;;;;;;2.72;1.17;;;14.80;99.90;;;;;;5054228;28;20032;-61
2021/10/05 09:00:04;;;;;;;1.45;1.25;;;14.80;99.90;;;;;;5047486;28;20571;-61
2021/10/05 09:02:42;;;;;;;4.78;1.85;;;14.90;99.90;;;;;;5060343;28;20108;-62
2021/10/05 09:05:11;;;;;;;4.63;1.95;;;15.00;99.90;;;;;;5057247;28;20102;-61
2021/10/05 09:07:43;;;;;;;9.23;1.60;;;15.10;99.90;;;;;;5055223;28;20025;-61
2021/10/05 09:10:10;;;;;;;2.28;1.58;;;15.10;99.90;;;;;;5054434;28;20029;-61
2021/10/05 09:12:35;;;;;;;4.45;1.90;;;15.10;99.90;;;;;;5055443;28;20025;-61
2021/10/05 09:15:05;;;;;;;1.30;1.20;;;15.10;99.90;;;;;;5061237;28;20109;-61
2021/10/05 09:17:30;;;;;;;1.42;0.90;;;15.20;99.90;;;;;;5040914;28;20028;-60
2021/10/05 09:19:57;;;;;;;6.57;1.42;;;15.40;99.90;;;;;;5059508;28;20108;-61
2021/10/05 09:22:32;;;;;;;3.03;1.27;;;15.60;99.90;;;;;;5057023;28;20021;-60
2021/10/05 09:24:59;;;;;;;2.92;1.20;;;15.70;99.90;;;;;;5053797;28;20039;-61
2021/10/05 09:27:26;;;;;;;2.22;1.33;;;15.80;99.90;;;;;;5056831;28;20657;-62
2021/10/05 09:29:53;;;;;;;2.22;1.30;;;15.90;99.90;;;;;;5055876;28;20027;-60
2021/10/05 09:32:27;;;;;;;1.88;1.05;;;16.00;99.90;;;;;;5067005;28;20048;-61
2021/10/05 09:35:02;;;;;;;2.70;0.90;;;16.10;99.90;;;;;;5057375;28;20033;-61
2021/10/05 09:37:35;;;;;;;2.92;0.98;;;16.20;99.90;;;;;;5060908;28;20048;-61
2021/10/05 09:40:12;;;;;;;1.15;1.00;;;16.20;99.90;;;;;;5063238;28;20103;-61
2021/10/05 09:42:40;;;;;;;1.35;1.10;;;16.20;99.90;;;;;;5054397;28;20029;-61
2021/10/05 09:45:14;;;;;;;2.97;2.28;;;16.20;99.90;;;;;;5058094;28;20090;-58
2021/10/05 09:47:45;;;;;;;1.98;1.20;;;16.40;99.90;;;;;;5055417;28;20041;-60
2021/10/05 09:50:24;;;;;;;2.67;1.15;;;16.50;99.90;;;;;;5066953;28;20078;-61
2021/10/05 09:53:10;;;;;;;2.67;1.00;;;16.70;99.90;;;;;;5052350;28;20122;-61
2021/10/05 09:55:37;;;;;;;50.60;7.80;;;16.80;99.90;;;;;;5059254;28;20091;-63
2021/10/05 09:58:04;;;;;;;1.10;0.90;;;16.90;99.90;;;;;;5054493;28;20029;-61
2021/10/05 10:00:32;;;;;;;1.67;0.85;;;17.00;99.90;;;;;;5062640;28;20055;-62
2021/10/05 10:02:58;;;;;;;2.03;1.00;;;17.10;99.90;;;;;;5055493;28;20838;-62
2021/10/05 10:05:26;;;;;;;3.22;1.05;;;17.20;99.90;;;;;;5061483;28;20323;-60
2021/10/05 10:07:54;;;;;;;6.55;1.85;;;17.30;99.90;;;;;;5063638;28;20388;-61
2021/10/05 10:10:33;;;;;;;1.35;0.80;;;17.40;99.90;;;;;;5060583;28;20032;-61
2021/10/05 10:13:19;;;;;;;3.95;1.13;;;17.40;99.90;;;;;;5056543;28;20471;-61
2021/10/05 10:15:46;;;;;;;1.75;0.90;;;17.50;99.90;;;;;;5054751;28;20412;-61
2021/10/05 10:18:22;;;;;;;4.82;1.10;;;17.50;99.90;;;;;;5060980;28;20025;-61
2021/10/05 10:21:01;;;;;;;4.85;1.00;;;17.50;99.90;;;;;;5058350;28;20021;-61
2021/10/05 10:23:29;;;;;;;4.05;0.80;;;17.60;99.90;;;;;;5057603;28;20369;-61
2021/10/05 10:26:01;;;;;;;5.03;1.02;;;17.70;99.90;;;;;;5052583;28;20033;-62
2021/10/05 10:28:30;;;;;;;4.60;1.02;;;17.80;99.90;;;;;;5054134;28;20058;-61
2021/10/05 10:30:59;;;;;;;4.38;1.00;;;17.80;99.90;;;;;;5065502;28;20403;-62
2021/10/05 10:33:27;;;;;;;6.57;1.25;;;17.80;99.90;;;;;;5059001;28;20523;-61
2021/10/05 10:35:55;;;;;;;2.25;1.02;;;17.90;99.90;;;;;;5054118;28;20036;-61
2021/10/05 10:38:29;;;;;;;1.55;0.90;;;18.00;99.90;;;;;;5057187;28;20409;-61
2021/10/05 10:40:56;;;;;;;;;;;18.00;99.90;;;;;;5053250;28;20028;-61
2021/10/05 10:43:25;;;;;;;2.33;0.98;;;18.00;99.90;;;;;;5059330;28;19912;-61
2021/10/05 10:45:54;;;;;;;6.05;1.15;;;18.10;99.90;;;;;;5060848;28;20021;-62
2021/10/05 10:48:30;;;;;;;5.00;1.10;;;18.20;99.90;;;;;;5055074;28;20522;-61
2021/10/05 10:50:59;;;;;;;7.53;1.38;;;18.30;99.90;;;;;;5056920;28;20460;-61
2021/10/05 10:53:38;;;;;;;3.28;1.20;;;18.30;99.90;;;;;;5057040;28;20111;-61
2021/10/05 10:56:05;;;;;;;3.40;1.00;;;18.40;99.90;;;;;;5057000;28;20036;-62
2021/10/05 10:58:40;;;;;;;10.88;1.10;;;18.50;99.90;;;;;;5056089;28;20033;-62
2021/10/05 11:01:06;;;;;;;2.75;1.00;;;18.60;99.90;;;;;;5052399;28;20028;-62
2021/10/05 11:03:31;;;;;;;6.28;1.08;;;18.60;99.90;;;;;;5060166;28;20043;-61
2021/10/05 11:05:57;;;;;;;7.20;1.67;;;18.70;99.90;;;;;;5062931;28;20106;-61
2021/10/05 11:08:22;;;;;;;5.20;1.13;;;18.80;99.90;;;;;;5057117;28;20300;-61
2021/10/05 11:10:48;;;;;;;2.65;0.90;;;18.80;99.90;;;;;;5062144;28;20029;-61
2021/10/05 11:13:13;;;;;;;3.33;1.10;;;18.90;99.90;;;;;;5054304;28;20033;-61
2021/10/05 11:15:40;;;;;;;3.25;0.88;;;19.00;99.90;;;;;;5059895;28;20485;-62
2021/10/05 11:18:12;;;;;;;3.83;1.08;;;19.10;99.90;;;;;;5055454;28;20071;-60
2021/10/05 11:21:04;;;;;;;3.03;1.20;;;19.20;99.90;;;;;;5065041;28;20086;-62
2021/10/05 11:23:30;;;;;;;9.93;1.48;;;19.30;99.90;;;;;;5063549;28;20511;-61
2021/10/05 11:25:58;;;;;;;4.38;1.05;;;19.40;99.90;;;;;;5052799;28;20033;-62
2021/10/05 11:28:28;;;;;;;7.47;1.35;;;19.30;99.90;;;;;;5055891;28;20025;-61
2021/10/05 11:30:57;;;;;;;7.35;1.17;;;19.30;99.90;;;;;;5061060;28;20027;-61
2021/10/05 11:33:25;;;;;;;8.07;1.58;;;19.40;99.90;;;;;;5059837;28;20080;-61
2021/10/05 11:35:51;;;;;;;3.63;1.00;;;19.50;99.90;;;;;;5059000;28;20021;-61
2021/10/05 11:38:17;;;;;;;7.43;1.60;;;19.70;99.90;;;;;;5062007;28;20395;-61
2021/10/05 11:40:55;;;;;;;4.13;0.90;;;19.70;99.90;;;;;;5065830;28;20078;-60
2021/10/05 11:43:34;;;;;;;5.28;1.00;;;19.80;99.90;;;;;;5062318;28;20515;-61
2021/10/05 11:46:06;;;;;;;4.60;1.52;;;19.70;99.90;;;;;;5064741;28;20036;-60
2021/10/05 11:48:39;;;;;;;2.78;1.30;;;19.70;99.90;;;;;;5060934;28;20385;-62
2021/10/05 11:51:05;;;;;;;8.17;1.30;;;20.00;99.90;;;;;;5069028;28;20016;-61
2021/10/05 11:53:35;;;;;;;6.13;1.67;;;19.90;99.90;;;;;;5063974;28;21136;-59
2021/10/05 11:56:06;;;;;;;7.65;1.65;;;20.00;99.90;;;;;;5074676;28;20035;-61
2021/10/05 11:58:47;;;;;;;2.40;1.30;;;20.00;99.90;;;;;;5064181;28;20028;-62
2021/10/05 12:01:28;;;;;;;3.33;1.30;;;19.90;99.90;;;;;;5056999;28;20028;-61
2021/10/05 12:04:07;;;;;;;7.10;2.05;;;19.60;99.90;;;;;;5061331;28;20032;-62
2021/10/05 12:06:41;;;;;;;4.43;1.55;;;19.40;99.90;;;;;;5057580;28;20116;-60
2021/10/05 12:09:15;;;;;;;3.25;1.90;;;19.10;99.90;;;;;;5065171;28;20033;-61
2021/10/05 12:11:44;;;;;;;10.05;2.13;;;19.00;99.90;;;;;;5066617;28;20576;-62
2021/10/05 12:14:11;;;;;;;4.68;2.10;;;18.90;99.90;;;;;;5062313;28;20017;-61
2021/10/05 12:16:40;;;;;;;4.63;1.40;;;18.80;99.90;;;;;;5063757;28;20532;-61
2021/10/05 12:19:06;;;;;;;8.88;1.65;;;18.80;99.90;;;;;;5068016;28;20029;-61
2021/10/05 12:21:32;;;;;;;6.32;2.00;;;18.70;99.90;;;;;;5057078;28;20471;-60
2021/10/05 12:24:02;;;;;;;8.10;1.83;;;18.70;99.90;;;;;;5066712;28;20039;-61
2021/10/05 12:26:28;;;;;;;3.80;1.52;;;18.80;99.90;;;;;;5068616;28;20561;-60
2021/10/05 12:29:00;;;;;;;6.70;1.23;;;19.00;99.90;;;;;;5059813;28;20033;-61
2021/10/05 12:31:28;;;;;;;15.07;1.55;;;19.10;99.90;;;;;;5061058;28;20048;-61
2021/10/05 12:33:56;;;;;;;3.47;1.48;;;19.20;99.90;;;;;;5057544;28;20033;-61
2021/10/05 12:36:22;;;;;;;4.97;1.25;;;19.40;99.90;;;;;;5058330;28;20032;-61
2021/10/05 12:38:48;;;;;;;2.88;0.93;;;19.50;99.90;;;;;;5055666;28;20029;-61
2021/10/05 12:41:13;;;;;;;4.95;0.98;;;19.40;99.90;;;;;;5069468;28;20043;-61
2021/10/05 12:43:42;;;;;;;2.45;0.80;;;19.30;99.90;;;;;;5057620;28;20033;-61
2021/10/05 12:46:11;;;;;;;10.23;1.50;;;19.30;99.90;;;;;;5055094;28;20150;-60